createdAt,value
2018-07-04T00:00:10.291Z,2.47
2018-07-04T00:02:55.754Z,2.23
2018-07-04T00:05:41.055Z,2.20
2018-07-04T00:08:26.409Z,2.53
2018-07-04T00:11:11.769Z,2.50
2018-07-04T00:13:57.205Z,2.20
2018-07-04T00:16:42.648Z,2.23
2018-07-04T00:19:28.011Z,2.40
2018-07-04T00:22:13.579Z,2.27
2018-07-04T00:24:59.073Z,2.67
2018-07-04T00:27:44.563Z,2.57
2018-07-04T00:30:29.889Z,2.80
2018-07-04T00:33:15.379Z,2.77
2018-07-04T00:36:00.774Z,2.53
2018-07-04T00:38:46.178Z,2.50
2018-07-04T00:41:31.543Z,2.70
2018-07-04T00:44:16.737Z,2.70
2018-07-04T00:47:02.164Z,2.60
2018-07-04T00:49:47.691Z,2.87
2018-07-04T00:52:32.941Z,2.63
2018-07-04T00:55:18.508Z,3.30
2018-07-04T00:58:03.703Z,3.00
2018-07-04T01:00:48.932Z,2.97
2018-07-04T01:03:34.275Z,3.00
2018-07-04T01:06:19.594Z,3.13
2018-07-04T01:09:05.339Z,3.27
2018-07-04T01:11:50.555Z,3.37
2018-07-04T01:14:35.692Z,3.40
2018-07-04T01:17:21.154Z,3.33
2018-07-04T01:20:06.745Z,3.07
2018-07-04T01:22:52.189Z,2.93
2018-07-04T01:25:37.503Z,3.60
2018-07-04T01:28:27.362Z,3.33
2018-07-04T01:31:12.840Z,3.57
2018-07-04T01:33:58.139Z,3.30
2018-07-04T01:36:43.693Z,3.30
2018-07-04T01:39:29.198Z,3.47
2018-07-04T01:42:14.538Z,3.83
2018-07-04T01:44:59.824Z,3.50
2018-07-04T01:47:45.068Z,3.30
2018-07-04T01:50:30.559Z,3.57
2018-07-04T01:53:15.895Z,3.30
2018-07-04T01:56:01.351Z,3.00
2018-07-04T01:58:46.952Z,3.77
2018-07-04T02:01:32.182Z,3.50
2018-07-04T02:04:17.720Z,3.50
2018-07-04T02:07:03.053Z,3.50
2018-07-04T02:09:48.394Z,3.30
2018-07-04T02:12:33.708Z,3.63
2018-07-04T02:15:13.312Z,3.60
2018-07-04T02:17:52.757Z,3.57
2018-07-04T02:20:38.063Z,3.20
2018-07-04T02:23:23.279Z,3.00
2018-07-04T02:26:08.568Z,2.93
2018-07-04T02:28:53.928Z,3.50
2018-07-04T02:31:39.322Z,3.73
2018-07-04T02:34:25.426Z,3.47
2018-07-04T02:37:10.642Z,3.43
2018-07-04T02:39:56.022Z,3.30
2018-07-04T02:42:41.177Z,3.07
2018-07-04T02:45:26.358Z,3.17
2018-07-04T02:48:11.689Z,3.20
2018-07-04T02:50:57.621Z,3.23
2018-07-04T02:53:42.993Z,3.50
2018-07-04T02:56:28.332Z,2.93
2018-07-04T02:59:13.823Z,3.40
2018-07-04T03:01:59.357Z,3.20
2018-07-04T03:04:44.659Z,3.33
2018-07-04T03:07:30.037Z,3.40
2018-07-04T03:10:15.212Z,3.17
2018-07-04T03:13:00.857Z,3.00
2018-07-04T03:15:46.327Z,3.13
2018-07-04T03:18:31.498Z,3.53
2018-07-04T03:21:16.879Z,3.13
2018-07-04T03:24:02.303Z,3.40
2018-07-04T03:26:47.917Z,3.30
2018-07-04T03:29:33.400Z,3.80
2018-07-04T03:32:18.808Z,3.70
2018-07-04T03:34:58.254Z,3.40
2018-07-04T03:37:43.730Z,3.63
2018-07-04T03:40:28.845Z,3.20
2018-07-04T03:43:14.843Z,3.50
2018-07-04T03:46:00.112Z,3.83
2018-07-04T03:48:45.244Z,3.87
2018-07-04T03:51:30.554Z,3.87
2018-07-04T03:54:16.023Z,3.30
2018-07-04T03:57:01.746Z,3.83
2018-07-04T03:59:47.013Z,3.60
2018-07-04T04:02:32.202Z,3.63
2018-07-04T04:05:17.600Z,3.57
2018-07-04T04:08:03.012Z,3.40
2018-07-04T04:10:48.242Z,4.30
2018-07-04T04:13:33.533Z,4.10
2018-07-04T04:16:18.771Z,3.40
2018-07-04T04:19:04.098Z,4.40
2018-07-04T04:21:49.678Z,4.40
2018-07-04T04:24:35.045Z,4.20
2018-07-04T04:27:20.303Z,4.33
2018-07-04T04:30:05.818Z,3.60
2018-07-04T04:32:51.175Z,4.30
2018-07-04T04:35:36.318Z,3.73
2018-07-04T04:38:21.549Z,3.93
2018-07-04T04:41:06.792Z,3.70
2018-07-04T04:43:52.463Z,4.10
2018-07-04T04:46:37.560Z,4.40
2018-07-04T04:49:22.853Z,3.53
2018-07-04T04:52:02.663Z,3.43
2018-07-04T04:54:48.008Z,3.40
2018-07-04T04:57:33.474Z,4.03
2018-07-04T05:00:18.935Z,4.20
2018-07-04T05:03:04.307Z,4.17
2018-07-04T05:05:49.754Z,3.63
2018-07-04T05:08:35.043Z,3.33
2018-07-04T05:11:20.179Z,3.77
2018-07-04T05:14:05.713Z,3.10
2018-07-04T05:16:51.273Z,3.40
2018-07-04T05:19:36.774Z,3.40
2018-07-04T05:22:22.224Z,3.70
2018-07-04T05:25:07.849Z,3.27
2018-07-04T05:27:53.308Z,2.50
2018-07-04T05:30:38.601Z,3.20
2018-07-04T05:33:24.075Z,2.70
2018-07-04T05:36:09.555Z,3.30
2018-07-04T05:38:55.018Z,2.80
2018-07-04T05:41:34.294Z,3.80
2018-07-04T05:44:19.886Z,2.90
2018-07-04T05:47:05.109Z,2.95
2018-07-04T05:49:50.642Z,6.47
2018-07-04T05:52:35.879Z,5.00
2018-07-04T05:55:21.562Z,5.85
2018-07-04T05:58:07.002Z,3.00
2018-07-04T06:00:52.235Z,2.90
2018-07-04T06:03:37.358Z,2.40
2018-07-04T06:06:22.654Z,2.80
2018-07-04T06:09:08.190Z,2.77
2018-07-04T06:11:53.873Z,2.98
2018-07-04T06:14:39.115Z,2.40
2018-07-04T06:17:18.619Z,2.72
2018-07-04T06:20:03.910Z,2.67
2018-07-04T06:22:49.386Z,3.33
2018-07-04T06:25:35.065Z,2.67
2018-07-04T06:28:20.684Z,2.85
2018-07-04T06:31:05.913Z,2.60
2018-07-04T06:33:51.353Z,2.70
2018-07-04T06:36:36.795Z,2.62
2018-07-04T06:39:09.564Z,2.58
2018-07-04T06:41:42.197Z,2.75
2018-07-04T06:44:15.600Z,3.00
2018-07-04T06:46:48.505Z,2.80
2018-07-04T06:49:21.690Z,2.37
2018-07-04T06:51:54.548Z,2.33
2018-07-04T06:54:27.322Z,2.22
2018-07-04T06:57:00.208Z,2.02
2018-07-04T06:59:32.860Z,2.60
2018-07-04T07:02:22.441Z,2.00
2018-07-04T07:05:07.743Z,2.10
2018-07-04T07:07:52.833Z,4.60
